Time;durP1;ratioP1;P1;durP2;ratioP2;P2;SDS_P1;SDS_P2;PMS_P1;PMS_P2;Temp;Humidity;BMP_temperature;BMP_pressure;BME280_temperature;BME280_humidity;BME280_pressure;Samples;Min_cycle;Max_cycle;Signal;HPM_P1;HPM_P2
2023/05/04 00:04:08;;;;;;;6.90;2.87;;;;;;;12.75;100.00;101193.91;31201800;28;20556;-78
2023/05/04 00:19:11;;;;;;;6.53;2.03;;;;;;;12.60;100.00;101193.25;31209275;28;20144;-77
2023/05/04 00:34:14;;;;;;;4.47;2.10;;;;;;;12.61;100.00;101188.59;31201585;28;20568;-77
2023/05/04 00:49:16;;;;;;;3.40;2.07;;;;;;;12.66;100.00;101184.66;31210785;28;20050;-80
2023/05/04 01:04:19;;;;;;;2.90;1.40;;;;;;;12.59;100.00;101164.47;31237949;28;20053;-77
2023/05/04 01:19:21;;;;;;;2.27;1.40;;;;;;;12.61;100.00;101183.91;31203650;28;20045;-78
2023/05/04 01:34:23;;;;;;;4.60;1.57;;;;;;;12.61;100.00;101183.91;31203839;28;20438;-78
2023/05/04 01:49:25;;;;;;;3.63;1.57;;;;;;;12.69;100.00;101186.56;31240593;28;20053;-77
2023/05/04 02:04:27;;;;;;;3.13;1.43;;;;;;;12.66;100.00;101185.44;31235184;28;20462;-79
2023/05/04 02:19:29;;;;;;;6.87;3.87;;;;;;;12.63;100.00;101165.22;31227709;28;20061;-78
2023/05/04 02:34:31;;;;;;;4.20;2.20;;;;;;;12.66;100.00;101169.06;31235530;28;20123;-79
2023/05/04 02:49:33;;;;;;;7.67;2.93;;;;;;;12.64;100.00;101166.75;31225381;28;20107;-78
2023/05/04 03:04:35;;;;;;;3.87;2.77;;;;;;;12.88;100.00;101137.69;31198367;28;20110;-77
2023/05/04 03:19:37;;;;;;;3.27;2.13;;;;;;;13.22;100.00;101151.28;31202872;28;20074;-79
2023/05/04 03:34:39;;;;;;;5.63;2.30;;;;;;;13.60;100.00;101140.19;31198386;28;20066;-79
2023/05/04 03:49:41;;;;;;;5.73;1.93;;;;;;;14.31;100.00;101137.03;31203671;28;20054;-80
2023/05/04 04:04:43;;;;;;;5.67;2.00;;;;;;;14.83;100.00;101127.47;31216520;28;20184;-79
2023/05/04 04:19:45;;;;;;;4.00;1.93;;;;;;;15.29;100.00;101120.97;31221085;28;20860;-80
2023/05/04 04:34:47;;;;;;;3.30;1.87;;;;;;;15.95;100.00;101134.25;31212627;28;20055;-80
2023/05/04 04:49:49;;;;;;;4.07;2.00;;;;;;;16.90;100.00;101129.34;31215476;28;20053;-80
2023/05/04 05:04:51;;;;;;;17.00;4.00;;;;;;;17.43;100.00;101116.75;31206948;28;20131;-80
2023/05/04 05:19:53;;;;;;;27.33;10.45;;;;;;;17.85;100.00;101133.84;31249573;28;20045;-81
2023/05/04 05:34:55;;;;;;;29.50;11.13;;;;;;;18.54;100.00;101147.53;31202601;28;20449;-79
2023/05/04 05:49:57;;;;;;;32.28;11.57;;;;;;;19.27;100.00;101147.19;31225036;28;20111;-78
2023/05/04 06:05:01;;;;;;;41.60;12.35;;;;;;;20.26;100.00;101159.66;31234397;28;20095;-84
2023/05/04 06:20:04;;;;;;;35.03;11.32;;;;;;;21.16;100.00;101157.22;31284414;28;20483;-85
2023/05/04 06:35:07;;;;;;;30.30;9.93;;;;;;;21.51;100.00;101154.00;31246846;28;20061;-85
2023/05/04 06:50:10;;;;;;;21.13;7.83;;;;;;;21.88;100.00;101144.28;31249804;28;20041;-86
2023/05/04 07:05:12;;;;;;;16.73;5.97;;;;;;;23.21;100.00;101144.44;31241420;28;20053;-85
2023/05/04 07:20:14;;;;;;;5.28;2.85;;;;;;;23.69;83.37;101144.88;31213967;28;20073;-85
2023/05/04 07:35:16;;;;;;;6.32;2.95;;;;;;;23.43;83.20;101139.97;31230537;28;20103;-85
2023/05/04 07:50:20;;;;;;;5.35;1.75;;;;;;;24.14;68.37;101135.84;31247290;28;20061;-86
2023/05/04 08:05:22;;;;;;;5.63;1.30;;;;;;;24.53;53.44;101148.66;31280405;28;20410;-88
2023/05/04 08:20:24;;;;;;;3.97;1.40;;;;;;;25.30;46.58;101148.53;31244029;28;20053;-86
2023/05/04 08:35:27;;;;;;;7.70;1.20;;;;;;;24.85;48.99;101141.09;31255940;28;20058;-81
2023/05/04 08:50:29;;;;;;;4.78;0.90;;;;;;;25.45;47.11;101126.16;31266679;28;20049;-79
2023/05/04 09:05:31;;;;;;;2.90;0.70;;;;;;;25.67;44.25;101114.41;31231247;28;20050;-77
2023/05/04 09:20:45;;;;;;;2.63;0.77;;;;;;;26.77;38.82;101107.56;31248534;28;20041;-86
2023/05/04 09:35:48;;;;;;;4.95;1.05;;;;;;;27.12;37.04;101092.38;31247171;28;20579;-83
2023/05/04 09:50:51;;;;;;;3.45;1.05;;;;;;;27.72;38.08;101081.53;31229312;28;20080;-79
2023/05/04 10:05:53;;;;;;;3.15;0.88;;;;;;;27.81;36.90;101078.44;31214996;28;20054;-79
2023/05/04 10:21:31;;;;;;;1.92;0.70;;;;;;;28.80;31.85;101073.47;31195297;28;20056;-81
2023/05/04 10:36:38;;;;;;;1.63;0.93;;;;;;;29.04;32.17;101066.38;31216947;28;20099;-80
2023/05/04 10:51:40;;;;;;;5.10;0.98;;;;;;;29.78;30.97;101031.41;31243461;28;20095;-82
2023/05/04 11:07:04;;;;;;;2.63;1.43;;;;;;;29.35;31.01;101023.81;31228693;28;20061;-83
2023/05/04 11:22:06;;;;;;;3.05;0.60;;;;;;;29.74;31.00;101008.59;31215548;28;20042;-82
2023/05/04 11:37:18;;;;;;;3.42;0.95;;;;;;;26.73;33.00;101001.22;31227673;28;20048;-88
2023/05/04 11:52:24;;;;;;;1.88;0.80;;;;;;;25.29;35.61;100991.38;31213687;28;20376;-77
2023/05/04 12:07:27;;;;;;;1.30;0.70;;;;;;;24.43;37.80;100967.66;31223469;28;20041;-80
2023/05/04 12:22:31;;;;;;;3.37;1.03;;;;;;;24.15;40.09;100948.75;31207668;28;20041;-80
2023/05/04 12:37:33;;;;;;;3.50;0.77;;;;;;;23.70;41.62;100919.13;31243984;28;20183;-81
2023/05/04 12:52:35;;;;;;;6.93;1.52;;;;;;;23.51;43.38;100904.81;31258058;28;20068;-80
2023/05/04 13:07:37;;;;;;;4.70;1.10;;;;;;;23.26;44.37;100903.53;31197613;28;20049;-80
2023/05/04 13:22:39;;;;;;;5.57;2.47;;;;;;;23.04;45.28;100881.13;31225362;28;20065;-80
2023/05/04 13:37:51;;;;;;;8.07;0.88;;;;;;;23.02;46.47;100853.16;31248399;28;20049;-86
2023/05/04 13:52:55;;;;;;;3.17;1.25;;;;;;;22.93;46.53;100836.69;31273751;28;20111;-85
2023/05/04 14:07:58;;;;;;;2.08;0.80;;;;;;;22.78;45.91;100812.63;31252052;28;20120;-84
2023/05/04 14:23:05;;;;;;;6.28;2.65;;;;;;;22.71;47.99;100801.94;31233832;28;20065;-86
2023/05/04 14:38:07;;;;;;;4.38;1.50;;;;;;;22.71;47.39;100785.34;31232306;28;20049;-80
2023/05/04 14:53:09;;;;;;;6.80;2.20;;;;;;;22.70;48.64;100774.75;31195470;28;20053;-78
2023/05/04 15:08:11;;;;;;;2.13;1.20;;;;;;;22.62;49.34;100757.81;31215351;28;20079;-87
2023/05/04 15:23:13;;;;;;;1.67;1.08;;;;;;;22.46;50.70;100755.59;31259548;28;20086;-83
2023/05/04 15:38:16;;;;;;;6.95;1.25;;;;;;;22.20;52.79;100746.50;31212928;28;20049;-79
2023/05/04 15:53:18;;;;;;;4.78;1.75;;;;;;;21.93;55.36;100751.13;31212486;28;20136;-78
2023/05/04 16:08:21;;;;;;;9.55;1.77;;;;;;;21.84;59.47;100751.25;31187766;28;20112;-79
2023/05/04 16:23:23;;;;;;;8.00;3.50;;;;;;;21.46;64.44;100740.38;31223092;28;20057;-77
2023/05/04 16:38:30;;;;;;;2.83;1.80;;;;;;;21.04;84.20;100752.41;31259921;28;20071;-83
2023/05/04 16:53:35;;;;;;;5.35;2.25;;;;;;;20.65;90.62;100746.94;31198878;28;20053;-82
2023/05/04 17:08:38;;;;;;;3.28;1.92;;;;;;;20.39;95.14;100765.22;31216521;28;20046;-83
2023/05/04 17:23:43;;;;;;;2.53;1.75;;;;;;;20.16;99.14;100779.72;31230243;28;20140;-89
2023/05/04 17:38:45;;;;;;;63.83;29.25;;;;;;;19.99;97.90;100787.63;31244045;28;20064;-85
2023/05/04 17:53:47;;;;;;;12.60;4.57;;;;;;;19.62;100.00;100785.00;31218695;28;20084;-86
2023/05/04 18:08:49;;;;;;;4.47;1.73;;;;;;;19.25;100.00;100786.28;31237597;28;20096;-82
2023/05/04 18:23:51;;;;;;;17.27;6.97;;;;;;;18.97;100.00;100772.56;31232559;28;20060;-86
2023/05/04 18:38:55;;;;;;;7.25;2.20;;;;;;;18.74;100.00;100773.19;31223823;28;20101;-82
2023/05/04 18:53:57;;;;;;;;;;;;;;;18.46;100.00;100764.13;31219739;28;20045;-81
2023/05/04 19:09:00;;;;;;;18.13;2.13;;;;;;;18.10;100.00;100772.28;31214461;28;20363;-81
2023/05/04 19:24:02;;;;;;;6.25;2.10;;;;;;;18.02;100.00;100777.31;31213405;28;20128;-81
2023/05/04 19:39:04;;;;;;;5.93;2.10;;;;;;;17.86;100.00;100770.09;31214793;28;20087;-83
2023/05/04 19:54:06;;;;;;;6.88;2.03;;;;;;;17.81;100.00;100767.16;31217466;28;20144;-84
2023/05/04 20:09:11;;;;;;;5.05;2.00;;;;;;;17.82;100.00;100752.22;31225230;28;20124;-80
2023/05/04 20:24:14;;;;;;;3.25;2.03;;;;;;;17.76;100.00;100743.78;31224533;28;20057;-82
2023/05/04 20:39:16;;;;;;;3.22;2.25;;;;;;;17.62;100.00;100758.06;31240883;28;20049;-81
2023/05/04 20:54:18;;;;;;;3.25;2.10;;;;;;;17.57;100.00;100758.63;31224684;28;20057;-81
2023/05/04 21:09:21;;;;;;;4.35;2.53;;;;;;;17.51;100.00;100752.19;31221864;28;20042;-81
2023/05/04 21:24:22;;;;;;;6.10;2.50;;;;;;;17.41;100.00;100750.63;31198301;28;20185;-81
2023/05/04 21:39:25;;;;;;;3.75;2.60;;;;;;;17.33;100.00;100717.19;31198291;28;20057;-82
2023/05/04 21:54:26;;;;;;;6.05;3.35;;;;;;;17.18;100.00;100708.75;31194091;28;20506;-80
2023/05/04 22:09:29;;;;;;;7.07;3.20;;;;;;;17.10;100.00;100718.44;31222736;28;20072;-80
2023/05/04 22:24:31;;;;;;;5.18;2.55;;;;;;;16.98;100.00;100689.13;31215415;28;20061;-79
2023/05/04 22:39:32;;;;;;;7.40;3.05;;;;;;;16.93;100.00;100667.75;31220735;28;20042;-81
2023/05/04 22:54:35;;;;;;;5.03;2.63;;;;;;;16.96;100.00;100651.16;31210061;28;20081;-80
2023/05/04 23:09:42;;;;;;;7.00;4.40;;;;;;;16.89;100.00;100634.22;31185823;28;20071;-79
2023/05/04 23:24:44;;;;;;;10.83;3.77;;;;;;;16.68;100.00;100622.06;31222095;28;20103;-81
2023/05/04 23:39:45;;;;;;;8.57;2.60;;;;;;;16.63;100.00;100601.47;31201801;28;20079;-80
2023/05/04 23:54:52;;;;;;;4.73;2.17;;;;;;;16.60;100.00;100590.59;31209142;28;20107;-80
